sensor_id;sensor_type;location;lat;lon;timestamp;P1;durP1;ratioP1;P2;durP2;ratioP2
55090;SDS011;40985;53.180;5.800;2023-02-15T00:00:10;281.85;;;52.17;;
55090;SDS011;40985;53.180;5.800;2023-02-15T00:02:36;442.83;;;68.03;;
55090;SDS011;40985;53.180;5.800;2023-02-15T00:05:02;267.17;;;54.22;;
55090;SDS011;40985;53.180;5.800;2023-02-15T00:07:28;428.77;;;69.60;;
55090;SDS011;40985;53.180;5.800;2023-02-15T00:09:53;118.03;;;39.28;;
55090;SDS011;40985;53.180;5.800;2023-02-15T00:12:19;303.60;;;56.08;;
55090;SDS011;40985;53.180;5.800;2023-02-15T00:14:45;294.85;;;56.53;;
55090;SDS011;40985;53.180;5.800;2023-02-15T00:17:10;193.32;;;46.85;;
55090;SDS011;40985;53.180;5.800;2023-02-15T00:19:36;143.52;;;42.33;;
55090;SDS011;40985;53.180;5.800;2023-02-15T00:22:02;179.98;;;42.42;;
55090;SDS011;40985;53.180;5.800;2023-02-15T00:24:27;169.05;;;45.50;;
55090;SDS011;40985;53.180;5.800;2023-02-15T00:26:53;101.72;;;39.85;;
55090;SDS011;40985;53.180;5.800;2023-02-15T00:29:19;282.40;;;50.53;;
55090;SDS011;40985;53.180;5.800;2023-02-15T00:31:45;159.00;;;43.90;;
55090;SDS011;40985;53.180;5.800;2023-02-15T00:34:13;167.98;;;44.33;;
55090;SDS011;40985;53.180;5.800;2023-02-15T00:36:38;104.00;;;38.47;;
55090;SDS011;40985;53.180;5.800;2023-02-15T00:39:04;138.35;;;39.92;;
55090;SDS011;40985;53.180;5.800;2023-02-15T00:41:34;113.85;;;38.47;;
55090;SDS011;40985;53.180;5.800;2023-02-15T00:44:00;97.57;;;38.50;;
55090;SDS011;40985;53.180;5.800;2023-02-15T00:46:26;94.68;;;36.28;;
55090;SDS011;40985;53.180;5.800;2023-02-15T00:48:52;208.05;;;47.78;;
55090;SDS011;40985;53.180;5.800;2023-02-15T00:51:17;97.75;;;35.42;;
55090;SDS011;40985;53.180;5.800;2023-02-15T00:53:43;125.07;;;34.60;;
55090;SDS011;40985;53.180;5.800;2023-02-15T00:56:10;96.50;;;32.47;;
55090;SDS011;40985;53.180;5.800;2023-02-15T00:58:36;133.07;;;35.83;;
55090;SDS011;40985;53.180;5.800;2023-02-15T01:01:05;95.65;;;34.72;;
55090;SDS011;40985;53.180;5.800;2023-02-15T01:03:33;137.35;;;38.38;;
55090;SDS011;40985;53.180;5.800;2023-02-15T01:05:59;100.38;;;34.78;;
55090;SDS011;40985;53.180;5.800;2023-02-15T01:08:25;95.85;;;32.85;;
55090;SDS011;40985;53.180;5.800;2023-02-15T01:10:51;156.00;;;39.95;;
55090;SDS011;40985;53.180;5.800;2023-02-15T01:13:16;81.10;;;30.73;;
55090;SDS011;40985;53.180;5.800;2023-02-15T01:15:43;84.57;;;29.98;;
55090;SDS011;40985;53.180;5.800;2023-02-15T01:18:09;82.38;;;32.28;;
55090;SDS011;40985;53.180;5.800;2023-02-15T01:20:36;94.93;;;35.70;;
55090;SDS011;40985;53.180;5.800;2023-02-15T01:23:04;118.50;;;34.90;;
55090;SDS011;40985;53.180;5.800;2023-02-15T01:25:32;117.45;;;35.03;;
55090;SDS011;40985;53.180;5.800;2023-02-15T01:27:58;81.78;;;31.85;;
55090;SDS011;40985;53.180;5.800;2023-02-15T01:30:24;98.03;;;31.02;;
55090;SDS011;40985;53.180;5.800;2023-02-15T01:32:50;115.60;;;30.90;;
55090;SDS011;40985;53.180;5.800;2023-02-15T01:35:16;90.28;;;28.67;;
55090;SDS011;40985;53.180;5.800;2023-02-15T01:37:42;256.35;;;48.33;;
55090;SDS011;40985;53.180;5.800;2023-02-15T01:40:08;223.30;;;39.95;;
55090;SDS011;40985;53.180;5.800;2023-02-15T01:42:38;133.10;;;32.10;;
55090;SDS011;40985;53.180;5.800;2023-02-15T01:47:46;129.60;;;34.13;;
55090;SDS011;40985;53.180;5.800;2023-02-15T01:50:24;110.10;;;29.05;;
55090;SDS011;40985;53.180;5.800;2023-02-15T01:52:58;154.23;;;33.03;;
55090;SDS011;40985;53.180;5.800;2023-02-15T01:55:34;195.63;;;33.78;;
55090;SDS011;40985;53.180;5.800;2023-02-15T01:58:04;183.18;;;37.13;;
55090;SDS011;40985;53.180;5.800;2023-02-15T02:00:31;134.30;;;30.88;;
55090;SDS011;40985;53.180;5.800;2023-02-15T02:02:59;154.85;;;33.78;;
55090;SDS011;40985;53.180;5.800;2023-02-15T02:05:26;53.05;;;24.85;;
55090;SDS011;40985;53.180;5.800;2023-02-15T02:07:54;91.88;;;28.67;;
55090;SDS011;40985;53.180;5.800;2023-02-15T02:10:22;162.48;;;37.42;;
55090;SDS011;40985;53.180;5.800;2023-02-15T02:12:49;81.80;;;26.85;;
55090;SDS011;40985;53.180;5.800;2023-02-15T02:15:18;115.65;;;30.98;;
55090;SDS011;40985;53.180;5.800;2023-02-15T02:20:28;78.90;;;24.85;;
55090;SDS011;40985;53.180;5.800;2023-02-15T02:35:19;142.55;;;34.05;;
55090;SDS011;40985;53.180;5.800;2023-02-15T02:46:02;167.95;;;34.30;;
55090;SDS011;40985;53.180;5.800;2023-02-15T02:48:34;176.48;;;34.65;;
55090;SDS011;40985;53.180;5.800;2023-02-15T02:51:00;133.68;;;33.72;;
55090;SDS011;40985;53.180;5.800;2023-02-15T02:53:26;146.45;;;32.45;;
55090;SDS011;40985;53.180;5.800;2023-02-15T03:01:33;115.03;;;31.83;;
55090;SDS011;40985;53.180;5.800;2023-02-15T03:04:38;101.32;;;32.33;;
55090;SDS011;40985;53.180;5.800;2023-02-15T03:07:01;73.88;;;27.17;;
55090;SDS011;40985;53.180;5.800;2023-02-15T03:09:35;89.15;;;29.85;;
55090;SDS011;40985;53.180;5.800;2023-02-15T03:15:00;70.50;;;30.52;;
55090;SDS011;40985;53.180;5.800;2023-02-15T03:17:31;69.03;;;28.90;;
55090;SDS011;40985;53.180;5.800;2023-02-15T03:20:00;80.45;;;33.33;;
55090;SDS011;40985;53.180;5.800;2023-02-15T03:25:07;63.25;;;27.60;;
55090;SDS011;40985;53.180;5.800;2023-02-15T03:28:05;91.00;;;27.33;;
55090;SDS011;40985;53.180;5.800;2023-02-15T03:30:34;65.80;;;26.35;;
55090;SDS011;40985;53.180;5.800;2023-02-15T03:33:02;76.28;;;28.33;;
55090;SDS011;40985;53.180;5.800;2023-02-15T03:35:39;92.57;;;30.70;;
55090;SDS011;40985;53.180;5.800;2023-02-15T03:38:52;121.25;;;31.10;;
55090;SDS011;40985;53.180;5.800;2023-02-15T03:41:25;118.15;;;28.90;;
55090;SDS011;40985;53.180;5.800;2023-02-15T03:44:03;164.80;;;36.13;;
55090;SDS011;40985;53.180;5.800;2023-02-15T03:46:33;118.13;;;30.85;;
55090;SDS011;40985;53.180;5.800;2023-02-15T03:49:22;172.65;;;35.78;;
55090;SDS011;40985;53.180;5.800;2023-02-15T03:51:53;122.35;;;30.95;;
55090;SDS011;40985;53.180;5.800;2023-02-15T03:54:25;85.53;;;27.05;;
55090;SDS011;40985;53.180;5.800;2023-02-15T03:59:56;71.20;;;28.70;;
55090;SDS011;40985;53.180;5.800;2023-02-15T04:02:44;74.18;;;27.45;;
55090;SDS011;40985;53.180;5.800;2023-02-15T04:05:15;81.55;;;29.17;;
55090;SDS011;40985;53.180;5.800;2023-02-15T04:07:40;84.85;;;29.25;;
55090;SDS011;40985;53.180;5.800;2023-02-15T04:10:06;46.85;;;27.27;;
55090;SDS011;40985;53.180;5.800;2023-02-15T04:12:50;70.00;;;26.27;;
55090;SDS011;40985;53.180;5.800;2023-02-15T04:15:16;66.32;;;29.50;;
55090;SDS011;40985;53.180;5.800;2023-02-15T04:18:02;38.47;;;26.65;;
55090;SDS011;40985;53.180;5.800;2023-02-15T04:20:28;46.25;;;28.85;;
55090;SDS011;40985;53.180;5.800;2023-02-15T04:23:12;73.22;;;30.35;;
55090;SDS011;40985;53.180;5.800;2023-02-15T04:25:56;79.10;;;29.02;;
55090;SDS011;40985;53.180;5.800;2023-02-15T04:28:22;65.93;;;29.60;;
55090;SDS011;40985;53.180;5.800;2023-02-15T04:30:47;106.93;;;31.23;;
55090;SDS011;40985;53.180;5.800;2023-02-15T04:33:13;110.82;;;30.90;;
55090;SDS011;40985;53.180;5.800;2023-02-15T04:35:39;104.28;;;29.80;;
55090;SDS011;40985;53.180;5.800;2023-02-15T04:38:04;150.60;;;36.67;;
55090;SDS011;40985;53.180;5.800;2023-02-15T04:40:30;89.43;;;29.38;;
55090;SDS011;40985;53.180;5.800;2023-02-15T04:42:56;71.13;;;29.85;;
55090;SDS011;40985;53.180;5.800;2023-02-15T04:45:21;75.43;;;27.92;;
55090;SDS011;40985;53.180;5.800;2023-02-15T04:47:47;59.88;;;27.55;;
55090;SDS011;40985;53.180;5.800;2023-02-15T04:50:13;71.47;;;27.50;;
55090;SDS011;40985;53.180;5.800;2023-02-15T04:52:38;80.88;;;31.15;;
55090;SDS011;40985;53.180;5.800;2023-02-15T04:55:04;63.45;;;32.08;;
55090;SDS011;40985;53.180;5.800;2023-02-15T04:57:30;81.43;;;33.40;;
55090;SDS011;40985;53.180;5.800;2023-02-15T04:59:56;55.47;;;31.02;;
55090;SDS011;40985;53.180;5.800;2023-02-15T05:02:23;58.92;;;31.60;;
55090;SDS011;40985;53.180;5.800;2023-02-15T05:04:49;56.20;;;33.40;;
55090;SDS011;40985;53.180;5.800;2023-02-15T05:07:15;42.92;;;31.63;;
55090;SDS011;40985;53.180;5.800;2023-02-15T05:09:41;53.45;;;33.97;;
55090;SDS011;40985;53.180;5.800;2023-02-15T05:12:06;54.80;;;35.00;;
55090;SDS011;40985;53.180;5.800;2023-02-15T05:14:32;66.50;;;37.50;;
55090;SDS011;40985;53.180;5.800;2023-02-15T05:16:58;51.40;;;34.53;;
55090;SDS011;40985;53.180;5.800;2023-02-15T05:19:26;80.47;;;37.20;;
55090;SDS011;40985;53.180;5.800;2023-02-15T05:21:52;76.68;;;37.20;;
55090;SDS011;40985;53.180;5.800;2023-02-15T05:24:18;82.70;;;36.08;;
55090;SDS011;40985;53.180;5.800;2023-02-15T05:27:02;114.60;;;38.30;;
55090;SDS011;40985;53.180;5.800;2023-02-15T05:29:46;139.70;;;42.65;;
55090;SDS011;40985;53.180;5.800;2023-02-15T05:32:13;83.90;;;36.92;;
55090;SDS011;40985;53.180;5.800;2023-02-15T05:34:39;97.40;;;38.95;;
55090;SDS011;40985;53.180;5.800;2023-02-15T05:37:04;95.20;;;39.00;;
55090;SDS011;40985;53.180;5.800;2023-02-15T05:39:30;124.07;;;43.47;;
55090;SDS011;40985;53.180;5.800;2023-02-15T05:41:58;68.50;;;37.40;;
55090;SDS011;40985;53.180;5.800;2023-02-15T05:44:24;88.15;;;37.50;;
55090;SDS011;40985;53.180;5.800;2023-02-15T05:46:50;70.68;;;39.20;;
55090;SDS011;40985;53.180;5.800;2023-02-15T05:49:16;71.40;;;38.70;;
55090;SDS011;40985;53.180;5.800;2023-02-15T05:51:41;67.50;;;36.65;;
55090;SDS011;40985;53.180;5.800;2023-02-15T05:54:07;61.33;;;36.67;;
55090;SDS011;40985;53.180;5.800;2023-02-15T05:56:33;84.60;;;39.92;;
55090;SDS011;40985;53.180;5.800;2023-02-15T05:58:58;60.45;;;35.40;;
55090;SDS011;40985;53.180;5.800;2023-02-15T06:01:24;56.65;;;37.50;;
55090;SDS011;40985;53.180;5.800;2023-02-15T06:03:53;50.58;;;36.72;;
55090;SDS011;40985;53.180;5.800;2023-02-15T06:06:20;58.50;;;37.70;;
55090;SDS011;40985;53.180;5.800;2023-02-15T06:08:46;54.50;;;37.33;;
55090;SDS011;40985;53.180;5.800;2023-02-15T06:11:12;70.55;;;39.05;;
55090;SDS011;40985;53.180;5.800;2023-02-15T06:13:38;62.70;;;37.97;;
55090;SDS011;40985;53.180;5.800;2023-02-15T06:16:04;61.75;;;37.15;;
55090;SDS011;40985;53.180;5.800;2023-02-15T06:18:30;83.75;;;41.38;;
55090;SDS011;40985;53.180;5.800;2023-02-15T06:20:56;62.45;;;38.83;;
55090;SDS011;40985;53.180;5.800;2023-02-15T06:23:21;69.60;;;40.08;;
55090;SDS011;40985;53.180;5.800;2023-02-15T06:25:47;100.43;;;42.47;;
55090;SDS011;40985;53.180;5.800;2023-02-15T06:28:13;90.70;;;43.17;;
55090;SDS011;40985;53.180;5.800;2023-02-15T06:30:39;71.15;;;40.28;;
55090;SDS011;40985;53.180;5.800;2023-02-15T06:33:05;71.60;;;39.55;;
55090;SDS011;40985;53.180;5.800;2023-02-15T06:35:30;75.82;;;39.22;;
55090;SDS011;40985;53.180;5.800;2023-02-15T06:37:56;65.93;;;40.90;;
55090;SDS011;40985;53.180;5.800;2023-02-15T06:40:22;75.65;;;41.83;;
55090;SDS011;40985;53.180;5.800;2023-02-15T06:42:47;75.40;;;40.72;;
55090;SDS011;40985;53.180;5.800;2023-02-15T06:45:13;105.20;;;43.47;;
55090;SDS011;40985;53.180;5.800;2023-02-15T06:47:39;78.10;;;40.65;;
55090;SDS011;40985;53.180;5.800;2023-02-15T06:50:05;98.43;;;44.30;;
55090;SDS011;40985;53.180;5.800;2023-02-15T06:52:32;89.13;;;45.40;;
55090;SDS011;40985;53.180;5.800;2023-02-15T06:54:58;77.28;;;43.80;;
55090;SDS011;40985;53.180;5.800;2023-02-15T06:57:23;99.15;;;44.95;;
55090;SDS011;40985;53.180;5.800;2023-02-15T06:59:49;124.35;;;48.03;;
55090;SDS011;40985;53.180;5.800;2023-02-15T07:02:15;154.95;;;48.88;;
55090;SDS011;40985;53.180;5.800;2023-02-15T07:04:40;122.53;;;46.03;;
55090;SDS011;40985;53.180;5.800;2023-02-15T07:07:10;85.63;;;43.15;;
55090;SDS011;40985;53.180;5.800;2023-02-15T07:09:36;110.65;;;45.05;;
55090;SDS011;40985;53.180;5.800;2023-02-15T07:12:02;93.15;;;45.17;;
55090;SDS011;40985;53.180;5.800;2023-02-15T07:14:47;138.13;;;47.67;;
55090;SDS011;40985;53.180;5.800;2023-02-15T07:17:12;107.93;;;44.05;;
55090;SDS011;40985;53.180;5.800;2023-02-15T07:19:38;164.18;;;48.85;;
55090;SDS011;40985;53.180;5.800;2023-02-15T07:22:04;121.80;;;45.08;;
55090;SDS011;40985;53.180;5.800;2023-02-15T07:24:30;187.85;;;50.92;;
55090;SDS011;40985;53.180;5.800;2023-02-15T07:26:55;123.75;;;46.10;;
55090;SDS011;40985;53.180;5.800;2023-02-15T07:29:22;206.48;;;51.13;;
55090;SDS011;40985;53.180;5.800;2023-02-15T07:31:48;163.55;;;50.20;;
55090;SDS011;40985;53.180;5.800;2023-02-15T07:34:14;173.70;;;48.65;;
55090;SDS011;40985;53.180;5.800;2023-02-15T07:36:39;255.32;;;55.35;;
55090;SDS011;40985;53.180;5.800;2023-02-15T07:39:05;85.93;;;45.95;;
55090;SDS011;40985;53.180;5.800;2023-02-15T07:41:31;186.07;;;51.40;;
55090;SDS011;40985;53.180;5.800;2023-02-15T07:43:56;300.13;;;60.35;;
55090;SDS011;40985;53.180;5.800;2023-02-15T07:46:22;194.93;;;52.90;;
55090;SDS011;40985;53.180;5.800;2023-02-15T07:48:47;148.23;;;47.63;;
55090;SDS011;40985;53.180;5.800;2023-02-15T07:51:13;194.50;;;51.97;;
55090;SDS011;40985;53.180;5.800;2023-02-15T07:53:40;190.30;;;56.72;;
55090;SDS011;40985;53.180;5.800;2023-02-15T07:56:08;323.92;;;64.82;;
55090;SDS011;40985;53.180;5.800;2023-02-15T07:58:35;264.98;;;61.75;;
55090;SDS011;40985;53.180;5.800;2023-02-15T08:01:24;301.48;;;64.18;;
55090;SDS011;40985;53.180;5.800;2023-02-15T08:03:51;222.07;;;56.88;;
55090;SDS011;40985;53.180;5.800;2023-02-15T08:06:18;127.55;;;50.42;;
55090;SDS011;40985;53.180;5.800;2023-02-15T08:08:45;128.52;;;54.50;;
55090;SDS011;40985;53.180;5.800;2023-02-15T08:16:39;181.32;;;62.55;;
55090;SDS011;40985;53.180;5.800;2023-02-15T08:21:39;162.60;;;60.70;;
55090;SDS011;40985;53.180;5.800;2023-02-15T08:24:06;102.68;;;55.17;;
55090;SDS011;40985;53.180;5.800;2023-02-15T08:26:33;105.63;;;55.65;;
55090;SDS011;40985;53.180;5.800;2023-02-15T08:28:59;108.13;;;56.22;;
55090;SDS011;40985;53.180;5.800;2023-02-15T08:31:26;114.05;;;56.63;;
55090;SDS011;40985;53.180;5.800;2023-02-15T08:33:53;112.68;;;57.53;;
55090;SDS011;40985;53.180;5.800;2023-02-15T08:36:21;113.00;;;56.28;;
55090;SDS011;40985;53.180;5.800;2023-02-15T08:38:48;108.85;;;56.47;;
55090;SDS011;40985;53.180;5.800;2023-02-15T08:41:15;117.88;;;59.60;;
55090;SDS011;40985;53.180;5.800;2023-02-15T08:43:44;113.55;;;58.05;;
55090;SDS011;40985;53.180;5.800;2023-02-15T08:46:11;112.65;;;56.80;;
55090;SDS011;40985;53.180;5.800;2023-02-15T08:48:39;120.45;;;58.50;;
55090;SDS011;40985;53.180;5.800;2023-02-15T08:51:06;110.28;;;57.03;;
55090;SDS011;40985;53.180;5.800;2023-02-15T08:53:36;116.57;;;59.70;;
55090;SDS011;40985;53.180;5.800;2023-02-15T08:56:02;117.90;;;59.58;;
55090;SDS011;40985;53.180;5.800;2023-02-15T08:58:29;117.20;;;57.92;;
55090;SDS011;40985;53.180;5.800;2023-02-15T09:00:55;117.78;;;58.90;;
55090;SDS011;40985;53.180;5.800;2023-02-15T09:03:21;109.93;;;58.22;;
55090;SDS011;40985;53.180;5.800;2023-02-15T09:05:48;123.53;;;61.78;;
55090;SDS011;40985;53.180;5.800;2023-02-15T09:08:14;122.38;;;62.58;;
55090;SDS011;40985;53.180;5.800;2023-02-15T09:10:40;116.80;;;59.95;;
55090;SDS011;40985;53.180;5.800;2023-02-15T09:13:06;119.03;;;61.28;;
55090;SDS011;40985;53.180;5.800;2023-02-15T09:15:32;124.30;;;63.58;;
55090;SDS011;40985;53.180;5.800;2023-02-15T09:17:57;125.25;;;64.43;;
55090;SDS011;40985;53.180;5.800;2023-02-15T09:20:30;124.40;;;62.22;;
55090;SDS011;40985;53.180;5.800;2023-02-15T09:22:57;126.93;;;62.55;;
55090;SDS011;40985;53.180;5.800;2023-02-15T09:25:22;128.38;;;63.20;;
55090;SDS011;40985;53.180;5.800;2023-02-15T09:27:48;127.50;;;63.72;;
55090;SDS011;40985;53.180;5.800;2023-02-15T09:30:14;136.77;;;66.47;;
55090;SDS011;40985;53.180;5.800;2023-02-15T09:32:40;131.63;;;67.15;;
55090;SDS011;40985;53.180;5.800;2023-02-15T09:35:05;124.72;;;64.65;;
55090;SDS011;40985;53.180;5.800;2023-02-15T09:37:31;139.90;;;69.18;;
55090;SDS011;40985;53.180;5.800;2023-02-15T09:39:57;151.43;;;70.82;;
55090;SDS011;40985;53.180;5.800;2023-02-15T09:45:29;142.55;;;69.72;;
55090;SDS011;40985;53.180;5.800;2023-02-15T09:50:44;140.43;;;68.38;;
55090;SDS011;40985;53.180;5.800;2023-02-15T10:31:23;94.85;;;53.13;;
55090;SDS011;40985;53.180;5.800;2023-02-15T10:33:55;92.05;;;50.30;;
55090;SDS011;40985;53.180;5.800;2023-02-15T10:50:40;64.70;;;40.72;;
55090;SDS011;40985;53.180;5.800;2023-02-15T10:53:31;67.18;;;41.33;;
55090;SDS011;40985;53.180;5.800;2023-02-15T10:56:29;66.38;;;39.67;;
55090;SDS011;40985;53.180;5.800;2023-02-15T11:01:55;62.47;;;36.33;;
55090;SDS011;40985;53.180;5.800;2023-02-15T11:07:18;58.78;;;36.58;;
55090;SDS011;40985;53.180;5.800;2023-02-15T11:12:52;53.70;;;33.88;;
55090;SDS011;40985;53.180;5.800;2023-02-15T11:15:26;59.05;;;36.10;;
55090;SDS011;40985;53.180;5.800;2023-02-15T11:18:19;55.47;;;35.42;;
55090;SDS011;40985;53.180;5.800;2023-02-15T11:21:09;57.15;;;35.72;;
55090;SDS011;40985;53.180;5.800;2023-02-15T11:23:43;50.88;;;33.03;;
55090;SDS011;40985;53.180;5.800;2023-02-15T11:26:21;57.15;;;34.00;;
55090;SDS011;40985;53.180;5.800;2023-02-15T11:28:54;57.00;;;35.38;;
55090;SDS011;40985;53.180;5.800;2023-02-15T11:31:25;57.92;;;35.58;;
55090;SDS011;40985;53.180;5.800;2023-02-15T11:33:56;52.95;;;32.90;;
55090;SDS011;40985;53.180;5.800;2023-02-15T11:36:37;52.15;;;32.55;;
55090;SDS011;40985;53.180;5.800;2023-02-15T11:39:09;53.22;;;32.40;;
55090;SDS011;40985;53.180;5.800;2023-02-15T11:41:40;49.63;;;31.17;;
55090;SDS011;40985;53.180;5.800;2023-02-15T11:44:23;49.83;;;34.15;;
55090;SDS011;40985;53.180;5.800;2023-02-15T11:46:52;47.40;;;31.13;;
55090;SDS011;40985;53.180;5.800;2023-02-15T11:49:22;50.22;;;31.48;;
55090;SDS011;40985;53.180;5.800;2023-02-15T11:51:56;50.13;;;31.23;;
55090;SDS011;40985;53.180;5.800;2023-02-15T11:54:26;48.05;;;30.88;;
55090;SDS011;40985;53.180;5.800;2023-02-15T11:57:03;50.53;;;31.02;;
55090;SDS011;40985;53.180;5.800;2023-02-15T11:59:37;49.42;;;31.05;;
55090;SDS011;40985;53.180;5.800;2023-02-15T12:02:15;49.10;;;30.95;;
55090;SDS011;40985;53.180;5.800;2023-02-15T12:04:43;49.53;;;32.45;;
55090;SDS011;40985;53.180;5.800;2023-02-15T12:10:04;49.65;;;31.30;;
55090;SDS011;40985;53.180;5.800;2023-02-15T12:12:37;48.13;;;31.42;;
55090;SDS011;40985;53.180;5.800;2023-02-15T12:15:06;45.75;;;31.25;;
55090;SDS011;40985;53.180;5.800;2023-02-15T12:22:38;48.13;;;32.33;;
55090;SDS011;40985;53.180;5.800;2023-02-15T12:25:53;51.20;;;32.97;;
55090;SDS011;40985;53.180;5.800;2023-02-15T12:30:55;47.50;;;31.38;;
55090;SDS011;40985;53.180;5.800;2023-02-15T12:41:37;46.30;;;30.80;;
55090;SDS011;40985;53.180;5.800;2023-02-15T12:44:17;48.45;;;31.77;;
55090;SDS011;40985;53.180;5.800;2023-02-15T12:46:58;44.90;;;30.23;;
55090;SDS011;40985;53.180;5.800;2023-02-15T12:49:36;49.28;;;31.55;;
55090;SDS011;40985;53.180;5.800;2023-02-15T12:52:04;50.72;;;31.17;;
55090;SDS011;40985;53.180;5.800;2023-02-15T12:54:42;49.85;;;31.42;;
55090;SDS011;40985;53.180;5.800;2023-02-15T12:57:22;47.22;;;32.33;;
55090;SDS011;40985;53.180;5.800;2023-02-15T13:00:06;53.10;;;32.17;;
55090;SDS011;40985;53.180;5.800;2023-02-15T13:02:52;48.90;;;31.73;;
55090;SDS011;40985;53.180;5.800;2023-02-15T13:08:09;45.35;;;31.80;;
55090;SDS011;40985;53.180;5.800;2023-02-15T13:13:35;43.92;;;27.85;;
55090;SDS011;40985;53.180;5.800;2023-02-15T13:16:17;43.92;;;28.75;;
55090;SDS011;40985;53.180;5.800;2023-02-15T13:19:04;49.63;;;31.23;;
55090;SDS011;40985;53.180;5.800;2023-02-15T13:21:45;47.58;;;31.52;;
55090;SDS011;40985;53.180;5.800;2023-02-15T13:24:21;47.72;;;30.80;;
55090;SDS011;40985;53.180;5.800;2023-02-15T13:26:49;48.90;;;30.65;;
55090;SDS011;40985;53.180;5.800;2023-02-15T13:29:37;48.53;;;30.83;;
55090;SDS011;40985;53.180;5.800;2023-02-15T13:32:45;43.63;;;29.25;;
55090;SDS011;40985;53.180;5.800;2023-02-15T13:34:57;45.53;;;28.58;;
55090;SDS011;40985;53.180;5.800;2023-02-15T13:42:46;43.17;;;28.67;;
55090;SDS011;40985;53.180;5.800;2023-02-15T13:53:30;44.45;;;28.55;;
55090;SDS011;40985;53.180;5.800;2023-02-15T14:02:02;48.35;;;29.45;;
55090;SDS011;40985;53.180;5.800;2023-02-15T14:07:53;45.25;;;29.27;;
55090;SDS011;40985;53.180;5.800;2023-02-15T14:21:30;43.38;;;28.45;;
55090;SDS011;40985;53.180;5.800;2023-02-15T14:26:40;45.75;;;29.17;;
55090;SDS011;40985;53.180;5.800;2023-02-15T14:31:56;42.63;;;27.70;;
55090;SDS011;40985;53.180;5.800;2023-02-15T14:34:43;46.72;;;29.67;;
55090;SDS011;40985;53.180;5.800;2023-02-15T14:37:19;48.85;;;29.27;;
55090;SDS011;40985;53.180;5.800;2023-02-15T14:46:08;43.30;;;28.75;;
55090;SDS011;40985;53.180;5.800;2023-02-15T14:48:53;46.85;;;29.25;;
55090;SDS011;40985;53.180;5.800;2023-02-15T14:54:08;43.67;;;27.60;;
55090;SDS011;40985;53.180;5.800;2023-02-15T14:56:36;47.65;;;29.10;;
55090;SDS011;40985;53.180;5.800;2023-02-15T15:04:36;44.85;;;28.67;;
55090;SDS011;40985;53.180;5.800;2023-02-15T15:07:24;44.92;;;29.02;;
55090;SDS011;40985;53.180;5.800;2023-02-15T15:12:41;50.40;;;30.02;;
55090;SDS011;40985;53.180;5.800;2023-02-15T15:25:46;48.85;;;30.65;;
55090;SDS011;40985;53.180;5.800;2023-02-15T15:33:36;46.50;;;30.58;;
55090;SDS011;40985;53.180;5.800;2023-02-15T15:42:11;52.90;;;32.35;;
55090;SDS011;40985;53.180;5.800;2023-02-15T15:47:58;49.45;;;31.52;;
55090;SDS011;40985;53.180;5.800;2023-02-15T15:50:44;45.72;;;31.38;;
55090;SDS011;40985;53.180;5.800;2023-02-15T15:53:16;47.72;;;31.88;;
55090;SDS011;40985;53.180;5.800;2023-02-15T15:55:46;48.83;;;31.60;;
55090;SDS011;40985;53.180;5.800;2023-02-15T15:58:16;49.30;;;32.97;;
55090;SDS011;40985;53.180;5.800;2023-02-15T16:00:49;52.17;;;33.20;;
55090;SDS011;40985;53.180;5.800;2023-02-15T16:05:48;47.47;;;32.45;;
55090;SDS011;40985;53.180;5.800;2023-02-15T16:11:08;57.88;;;34.78;;
55090;SDS011;40985;53.180;5.800;2023-02-15T16:13:40;58.90;;;37.30;;
55090;SDS011;40985;53.180;5.800;2023-02-15T16:16:07;57.80;;;37.97;;
55090;SDS011;40985;53.180;5.800;2023-02-15T16:18:33;56.80;;;35.88;;
55090;SDS011;40985;53.180;5.800;2023-02-15T16:21:03;56.33;;;36.13;;
55090;SDS011;40985;53.180;5.800;2023-02-15T16:28:57;54.40;;;35.15;;
55090;SDS011;40985;53.180;5.800;2023-02-15T16:31:23;57.75;;;35.88;;
55090;SDS011;40985;53.180;5.800;2023-02-15T16:33:51;55.08;;;36.05;;
55090;SDS011;40985;53.180;5.800;2023-02-15T16:41:20;59.88;;;38.42;;
55090;SDS011;40985;53.180;5.800;2023-02-15T16:43:48;58.38;;;37.85;;
55090;SDS011;40985;53.180;5.800;2023-02-15T16:46:24;62.25;;;38.53;;
55090;SDS011;40985;53.180;5.800;2023-02-15T16:48:59;64.35;;;43.08;;
55090;SDS011;40985;53.180;5.800;2023-02-15T16:51:28;57.05;;;38.70;;
55090;SDS011;40985;53.180;5.800;2023-02-15T16:53:56;56.45;;;37.25;;
55090;SDS011;40985;53.180;5.800;2023-02-15T16:56:29;61.00;;;38.60;;
55090;SDS011;40985;53.180;5.800;2023-02-15T16:58:56;61.45;;;38.00;;
55090;SDS011;40985;53.180;5.800;2023-02-15T17:01:24;63.03;;;39.72;;
55090;SDS011;40985;53.180;5.800;2023-02-15T17:07:15;58.78;;;39.58;;
55090;SDS011;40985;53.180;5.800;2023-02-15T17:09:49;63.70;;;40.80;;
55090;SDS011;40985;53.180;5.800;2023-02-15T17:17:49;65.07;;;41.63;;
55090;SDS011;40985;53.180;5.800;2023-02-15T17:20:16;63.85;;;42.10;;
55090;SDS011;40985;53.180;5.800;2023-02-15T17:22:44;67.18;;;41.70;;
55090;SDS011;40985;53.180;5.800;2023-02-15T17:25:14;66.07;;;42.78;;
55090;SDS011;40985;53.180;5.800;2023-02-15T17:27:53;69.97;;;43.45;;
55090;SDS011;40985;53.180;5.800;2023-02-15T17:30:23;71.43;;;42.33;;
55090;SDS011;40985;53.180;5.800;2023-02-15T17:32:58;65.53;;;43.92;;
55090;SDS011;40985;53.180;5.800;2023-02-15T17:35:27;67.93;;;42.40;;
55090;SDS011;40985;53.180;5.800;2023-02-15T17:38:39;70.75;;;44.88;;
55090;SDS011;40985;53.180;5.800;2023-02-15T17:40:46;66.88;;;46.00;;
55090;SDS011;40985;53.180;5.800;2023-02-15T17:43:12;66.05;;;44.22;;
55090;SDS011;40985;53.180;5.800;2023-02-15T17:45:40;71.57;;;45.47;;
55090;SDS011;40985;53.180;5.800;2023-02-15T17:48:13;68.53;;;44.50;;
55090;SDS011;40985;53.180;5.800;2023-02-15T17:50:58;69.45;;;46.22;;
55090;SDS011;40985;53.180;5.800;2023-02-15T17:53:28;69.18;;;45.05;;
55090;SDS011;40985;53.180;5.800;2023-02-15T17:55:54;74.90;;;47.03;;
55090;SDS011;40985;53.180;5.800;2023-02-15T17:58:19;71.57;;;45.03;;
55090;SDS011;40985;53.180;5.800;2023-02-15T18:00:50;72.22;;;46.63;;
55090;SDS011;40985;53.180;5.800;2023-02-15T18:06:23;73.22;;;46.78;;
55090;SDS011;40985;53.180;5.800;2023-02-15T18:09:09;69.03;;;44.88;;
55090;SDS011;40985;53.180;5.800;2023-02-15T18:11:54;77.07;;;46.60;;
55090;SDS011;40985;53.180;5.800;2023-02-15T18:14:20;66.45;;;45.58;;
55090;SDS011;40985;53.180;5.800;2023-02-15T18:16:46;71.18;;;45.40;;
55090;SDS011;40985;53.180;5.800;2023-02-15T18:19:13;69.43;;;44.88;;
55090;SDS011;40985;53.180;5.800;2023-02-15T18:21:45;66.93;;;44.55;;
55090;SDS011;40985;53.180;5.800;2023-02-15T18:24:15;69.07;;;45.15;;
55090;SDS011;40985;53.180;5.800;2023-02-15T18:26:48;67.70;;;43.58;;
55090;SDS011;40985;53.180;5.800;2023-02-15T18:29:14;73.07;;;45.90;;
55090;SDS011;40985;53.180;5.800;2023-02-15T18:31:41;66.63;;;43.40;;
55090;SDS011;40985;53.180;5.800;2023-02-15T18:34:19;71.25;;;46.65;;
55090;SDS011;40985;53.180;5.800;2023-02-15T18:36:52;68.43;;;44.28;;
55090;SDS011;40985;53.180;5.800;2023-02-15T18:41:51;68.07;;;43.50;;
55090;SDS011;40985;53.180;5.800;2023-02-15T18:44:18;74.95;;;45.40;;